Time;durP1;ratioP1;P1;durP2;ratioP2;P2;SDS_P1;SDS_P2;PMS_P1;PMS_P2;Temp;Humidity;BMP_temperature;BMP_pressure;BME280_temperature;BME280_humidity;BME280_pressure;Samples;Min_cycle;Max_cycle;Signal;HPM_P1;HPM_P2
2022/12/08 00:01:22;;;;;;;7.80;6.73;;;4.50;27.40;;;;;;5041171;28;20208;-57
2022/12/08 00:03:49;;;;;;;8.67;6.93;;;4.50;99.90;;;;;;5037248;28;20267;-57
2022/12/08 00:09:40;;;;;;;10.13;6.83;;;4.50;99.90;;;;;;5041013;28;20239;-55
2022/12/08 00:12:12;;;;;;;9.10;6.47;;;4.60;99.90;;;;;;5038870;28;20229;-56
2022/12/08 00:14:41;;;;;;;9.13;6.57;;;4.60;99.90;;;;;;5041689;28;20224;-54
2022/12/08 00:17:10;;;;;;;10.17;7.13;;;4.60;99.90;;;;;;5040493;28;21040;-55
2022/12/08 00:19:38;;;;;;;10.03;7.20;;;4.50;99.90;;;;;;5040617;28;20391;-54
2022/12/08 00:22:06;;;;;;;8.87;7.00;;;4.50;99.90;;;;;;5035873;28;20203;-57
2022/12/08 00:24:38;;;;;;;9.17;6.77;;;4.50;99.90;;;;;;5035656;28;20196;-56
2022/12/08 00:27:06;;;;;;;10.07;7.50;;;4.50;99.90;;;;;;5033854;28;20264;-57
2022/12/08 00:29:33;;;;;;;10.17;6.70;;;4.50;99.90;;;;;;5037511;28;20204;-55
2022/12/08 00:32:00;;;;;;;11.27;7.33;;;4.50;99.90;;;;;;5033710;28;20295;-54
2022/12/08 00:34:27;;;;;;;10.20;7.27;;;4.60;99.90;;;;;;5034266;28;20278;-55
2022/12/08 00:36:54;;;;;;;10.53;6.93;;;4.80;99.90;;;;;;5020814;28;20223;-55
2022/12/08 00:39:20;;;;;;;9.87;7.33;;;4.70;99.90;;;;;;5034834;28;20679;-56
2022/12/08 00:44:32;;;;;;;7.90;5.93;;;4.60;34.40;;;;;;5040281;28;20211;-56
2022/12/08 00:46:59;;;;;;;10.70;6.47;;;4.60;1.00;;;;;;5040500;28;20215;-56
2022/12/08 00:49:26;;;;;;;8.13;6.60;;;4.50;1.00;;;;;;5038747;28;20227;-55
2022/12/08 00:51:53;;;;;;;8.93;6.30;;;4.60;99.90;;;;;;5039428;28;20197;-55
2022/12/08 00:54:21;;;;;;;8.60;5.83;;;4.80;99.90;;;;;;5041167;28;20220;-55
2022/12/08 00:56:48;;;;;;;9.73;5.53;;;4.70;1.00;;;;;;5040897;28;20204;-55
2022/12/08 00:59:15;;;;;;;8.93;6.43;;;4.60;1.00;;;;;;5036937;28;20243;-56
2022/12/08 01:01:44;;;;;;;8.93;6.37;;;4.60;1.00;;;;;;5039468;28;20649;-56
2022/12/08 01:04:16;;;;;;;8.57;7.10;;;4.60;18.20;;;;;;5023202;28;20679;-55
2022/12/08 01:06:43;;;;;;;10.63;6.23;;;4.70;99.90;;;;;;5038643;28;20759;-56
2022/12/08 01:09:11;;;;;;;9.47;5.97;;;4.80;99.90;;;;;;5021413;28;20214;-58
2022/12/08 01:11:38;;;;;;;11.93;6.10;;;4.90;88.80;;;;;;5038140;28;20225;-55
2022/12/08 01:14:05;;;;;;;9.70;6.13;;;4.90;1.00;;;;;;5039667;28;20205;-56
2022/12/08 01:16:34;;;;;;;7.57;6.10;;;4.90;1.00;;;;;;5034320;28;20216;-54
2022/12/08 01:19:02;;;;;;;7.40;5.37;;;5.00;1.00;;;;;;5027279;28;20312;-55
2022/12/08 01:21:28;;;;;;;11.40;5.17;;;4.90;1.00;;;;;;5033752;28;20560;-55
2022/12/08 01:23:58;;;;;;;11.33;6.03;;;4.90;1.00;;;;;;5040458;28;20291;-57
2022/12/08 01:26:24;;;;;;;7.87;5.90;;;4.70;1.00;;;;;;5039609;28;20209;-56
2022/12/08 01:28:51;;;;;;;7.90;5.80;;;4.60;1.00;;;;;;5038982;28;20200;-54
2022/12/08 01:31:20;;;;;;;9.83;6.13;;;4.70;99.90;;;;;;5037913;28;20223;-56
2022/12/08 01:33:48;;;;;;;10.67;5.30;;;4.60;99.90;;;;;;5035820;28;20273;-55
2022/12/08 01:36:23;;;;;;;7.20;5.20;;;4.50;99.90;;;;;;5036035;28;20208;-56
2022/12/08 01:38:51;;;;;;;5.87;4.50;;;4.50;99.90;;;;;;5039865;28;20227;-57
2022/12/08 01:41:24;;;;;;;8.57;5.23;;;4.40;99.90;;;;;;5034828;28;20203;-55
2022/12/08 01:43:59;;;;;;;7.90;4.83;;;4.40;99.90;;;;;;5041580;28;20215;-56
2022/12/08 01:46:28;;;;;;;8.33;5.03;;;4.40;99.90;;;;;;5041554;28;20656;-55
2022/12/08 01:49:11;;;;;;;7.80;5.43;;;4.50;99.90;;;;;;5039078;28;20281;-55
2022/12/08 01:51:47;;;;;;;10.73;5.03;;;4.50;99.90;;;;;;5036517;28;20566;-56
2022/12/08 01:54:15;;;;;;;5.00;4.17;;;4.40;99.90;;;;;;5040272;28;20200;-54
2022/12/08 01:56:59;;;;;;;8.33;5.10;;;4.40;99.90;;;;;;5040897;28;20284;-56
2022/12/08 01:59:29;;;;;;;5.53;4.87;;;4.40;99.90;;;;;;5039248;28;20219;-56
2022/12/08 02:01:56;;;;;;;6.53;4.20;;;4.50;99.90;;;;;;5041311;28;20238;-55
2022/12/08 02:04:23;;;;;;;5.67;3.70;;;4.50;99.90;;;;;;5038098;28;20197;-56
2022/12/08 02:06:51;;;;;;;4.70;3.40;;;4.40;99.90;;;;;;5040760;28;20556;-55
2022/12/08 02:09:18;;;;;;;6.53;3.67;;;4.30;99.90;;;;;;5038213;28;20208;-56
2022/12/08 02:11:46;;;;;;;5.13;4.03;;;4.40;99.90;;;;;;5040582;28;20287;-56
2022/12/08 02:14:14;;;;;;;5.77;4.00;;;4.40;99.90;;;;;;5039562;28;20645;-56
2022/12/08 02:16:48;;;;;;;5.47;4.00;;;4.30;99.90;;;;;;5040554;28;20243;-55
2022/12/08 02:19:56;;;;;;;5.37;3.13;;;4.30;99.90;;;;;;5032859;28;20226;-55
2022/12/08 02:22:35;;;;;;;6.83;3.83;;;4.30;99.90;;;;;;5035344;28;20217;-55
2022/12/08 02:25:19;;;;;;;4.67;3.70;;;4.30;99.90;;;;;;5034105;28;20208;-56
2022/12/08 02:28:06;;;;;;;4.97;3.57;;;4.30;99.90;;;;;;5034378;28;20646;-56
2022/12/08 02:31:30;;;;;;;7.50;3.70;;;4.40;99.90;;;;;;5036248;28;20238;-56
2022/12/08 02:34:07;;;;;;;4.37;2.87;;;4.40;99.90;;;;;;4975277;28;20242;-56
2022/12/08 02:36:49;;;;;;;4.17;3.00;;;4.30;99.90;;;;;;4990892;28;20209;-56
2022/12/08 02:39:22;;;;;;;3.47;2.40;;;4.30;99.90;;;;;;4987081;28;20312;-56
2022/12/08 02:42:12;;;;;;;5.43;2.80;;;4.40;99.90;;;;;;4984914;28;20209;-54
2022/12/08 02:44:47;;;;;;;5.93;2.93;;;4.30;99.90;;;;;;4977809;28;20667;-55
2022/12/08 02:47:17;;;;;;;4.57;3.10;;;4.40;99.90;;;;;;4985613;28;20284;-57
2022/12/08 02:49:44;;;;;;;4.93;2.77;;;4.50;99.90;;;;;;4984349;28;20199;-56
2022/12/08 02:52:11;;;;;;;3.80;2.70;;;4.70;99.90;;;;;;4986503;28;20242;-56
2022/12/08 02:54:50;;;;;;;3.77;2.50;;;4.70;99.90;;;;;;4986633;28;20194;-55
2022/12/08 02:57:45;;;;;;;3.70;1.97;;;4.70;99.90;;;;;;4987668;28;20673;-55
2022/12/08 03:00:16;;;;;;;3.50;2.10;;;4.50;99.90;;;;;;4987520;28;20239;-56
2022/12/08 03:02:46;;;;;;;3.57;2.40;;;4.60;99.90;;;;;;4985689;28;20207;-54
2022/12/08 03:05:25;;;;;;;2.93;2.50;;;4.70;99.90;;;;;;5029088;28;20200;-55
2022/12/08 03:08:21;;;;;;;2.10;1.90;;;4.60;99.90;;;;;;5052911;28;20566;-55
2022/12/08 03:11:10;;;;;;;2.10;1.80;;;4.40;99.90;;;;;;5051033;28;20354;-56
2022/12/08 03:13:47;;;;;;;3.87;1.87;;;4.30;99.90;;;;;;5052755;28;20237;-56
2022/12/08 03:16:18;;;;;;;3.90;1.83;;;4.30;99.90;;;;;;5047339;28;20218;-55
2022/12/08 03:18:50;;;;;;;3.10;1.73;;;4.30;99.90;;;;;;5050316;28;20647;-56
2022/12/08 03:21:19;;;;;;;1.73;1.60;;;4.40;99.90;;;;;;5048600;28;20214;-55
2022/12/08 03:23:49;;;;;;;2.30;2.00;;;4.40;99.90;;;;;;5067429;28;20341;-56
2022/12/08 03:26:29;;;;;;;3.80;1.50;;;4.40;99.90;;;;;;5051099;28;20207;-57
2022/12/08 03:28:56;;;;;;;2.13;1.43;;;4.40;99.90;;;;;;5051498;28;20620;-57
2022/12/08 03:31:27;;;;;;;1.90;1.30;;;4.50;99.90;;;;;;5047473;28;20205;-55
2022/12/08 03:33:57;;;;;;;2.20;1.63;;;4.50;99.90;;;;;;5037671;28;20237;-56
2022/12/08 03:36:24;;;;;;;1.77;1.40;;;4.50;99.90;;;;;;5035184;28;20207;-56
2022/12/08 03:38:53;;;;;;;2.30;1.07;;;4.60;99.90;;;;;;5032770;28;20202;-55
2022/12/08 03:41:21;;;;;;;2.23;1.53;;;4.60;99.90;;;;;;5031787;28;20660;-55
2022/12/08 03:43:50;;;;;;;3.03;1.00;;;4.50;99.90;;;;;;5037879;28;20631;-57
2022/12/08 03:46:18;;;;;;;4.97;1.30;;;4.60;99.90;;;;;;5035424;28;20209;-60
2022/12/08 03:48:45;;;;;;;4.80;1.57;;;4.60;99.90;;;;;;5034276;28;20203;-56
2022/12/08 03:51:12;;;;;;;3.40;1.40;;;4.70;99.90;;;;;;5049059;28;20696;-57
2022/12/08 03:53:39;;;;;;;3.87;1.33;;;4.60;99.90;;;;;;5035471;28;20210;-55
2022/12/08 03:56:14;;;;;;;4.50;1.37;;;4.70;99.90;;;;;;5035108;28;20207;-56
2022/12/08 03:58:42;;;;;;;5.03;1.70;;;4.60;99.90;;;;;;5037509;28;20209;-56
2022/12/08 04:01:08;;;;;;;2.67;1.70;;;4.70;99.90;;;;;;5038256;28;20239;-55
2022/12/08 04:03:35;;;;;;;2.63;1.80;;;4.90;99.90;;;;;;5036824;28;20205;-56
2022/12/08 04:06:02;;;;;;;3.07;2.30;;;4.80;99.90;;;;;;5034947;28;20202;-56
2022/12/08 04:08:29;;;;;;;4.93;2.33;;;4.70;99.90;;;;;;5031686;28;20206;-55
2022/12/08 04:10:55;;;;;;;9.40;2.70;;;4.70;99.90;;;;;;5033656;28;20273;-55
2022/12/08 04:13:22;;;;;;;4.77;2.40;;;4.90;99.90;;;;;;5033979;28;20204;-56
2022/12/08 04:15:49;;;;;;;7.47;2.93;;;4.80;99.90;;;;;;5038046;28;20648;-57
2022/12/08 04:18:16;;;;;;;4.57;3.13;;;4.70;99.90;;;;;;5036180;28;20212;-55
2022/12/08 04:20:44;;;;;;;3.47;2.90;;;4.70;99.90;;;;;;5033734;28;20248;-55
2022/12/08 04:23:11;;;;;;;3.87;2.90;;;4.80;99.90;;;;;;5035100;28;21190;-56
2022/12/08 04:25:38;;;;;;;4.87;3.10;;;4.80;99.90;;;;;;5036346;28;20204;-56
2022/12/08 04:28:05;;;;;;;3.80;2.40;;;4.90;99.90;;;;;;5040840;28;20526;-56
2022/12/08 04:30:32;;;;;;;3.97;2.63;;;4.80;99.90;;;;;;5037956;28;20208;-56
2022/12/08 04:32:59;;;;;;;4.63;2.80;;;4.90;99.90;;;;;;5033343;28;20251;-56
2022/12/08 04:35:27;;;;;;;3.50;2.90;;;4.90;99.90;;;;;;5033663;28;20202;-56
2022/12/08 04:37:53;;;;;;;4.90;3.13;;;4.80;99.90;;;;;;5030689;28;20770;-56
2022/12/08 04:40:20;;;;;;;4.57;2.63;;;4.80;99.90;;;;;;5034496;28;20570;-55
2022/12/08 04:42:47;;;;;;;4.57;3.07;;;4.70;99.90;;;;;;5033270;28;20645;-56
2022/12/08 04:45:14;;;;;;;4.53;3.03;;;4.80;99.90;;;;;;5033157;28;20233;-56
2022/12/08 04:47:41;;;;;;;5.17;3.27;;;4.80;99.90;;;;;;5033877;28;20204;-56
2022/12/08 04:50:08;;;;;;;7.03;3.63;;;4.90;99.90;;;;;;5037118;28;20610;-56
2022/12/08 04:52:35;;;;;;;5.47;3.37;;;4.90;99.90;;;;;;5034460;28;20214;-56
2022/12/08 04:55:03;;;;;;;6.87;3.53;;;4.90;99.90;;;;;;5038577;28;20204;-56
2022/12/08 04:57:29;;;;;;;6.30;3.77;;;4.70;99.90;;;;;;5038573;28;20199;-59
2022/12/08 04:59:56;;;;;;;8.87;4.07;;;4.70;99.90;;;;;;5041528;28;20678;-56
2022/12/08 05:02:23;;;;;;;5.77;3.73;;;4.70;99.90;;;;;;5040787;28;20212;-56
2022/12/08 05:04:49;;;;;;;8.40;4.70;;;4.70;99.90;;;;;;5038670;28;20196;-56
2022/12/08 05:07:16;;;;;;;6.97;4.50;;;4.60;99.90;;;;;;5039566;28;20199;-56
2022/12/08 05:09:43;;;;;;;5.67;3.53;;;4.60;99.90;;;;;;5039225;28;20207;-57
2022/12/08 05:12:10;;;;;;;4.67;3.13;;;4.60;99.90;;;;;;5038251;28;20232;-56
2022/12/08 05:14:37;;;;;;;8.53;3.47;;;4.60;99.90;;;;;;5040422;28;20241;-56
2022/12/08 05:17:04;;;;;;;4.03;3.00;;;4.70;99.90;;;;;;5041519;28;20200;-56
2022/12/08 05:19:35;;;;;;;5.37;3.40;;;4.60;99.90;;;;;;5038870;28;20208;-56
2022/12/08 05:22:02;;;;;;;4.50;3.00;;;4.60;99.90;;;;;;5040128;28;20207;-57
2022/12/08 05:24:29;;;;;;;4.70;3.30;;;4.50;99.90;;;;;;5037874;28;20740;-57
2022/12/08 05:26:55;;;;;;;4.00;2.93;;;4.50;99.90;;;;;;5039671;28;20678;-56
2022/12/08 05:29:22;;;;;;;3.90;3.10;;;4.50;99.90;;;;;;5036772;28;20228;-56
2022/12/08 05:31:49;;;;;;;5.10;2.50;;;4.50;99.90;;;;;;5040202;28;20653;-56
2022/12/08 05:34:16;;;;;;;3.03;2.00;;;4.50;99.90;;;;;;5037932;28;20266;-55
2022/12/08 05:36:43;;;;;;;2.13;1.80;;;4.60;99.90;;;;;;5038485;28;20198;-56
2022/12/08 05:39:13;;;;;;;2.23;1.93;;;4.40;99.90;;;;;;5019654;28;20544;-55
2022/12/08 05:41:40;;;;;;;2.70;1.90;;;4.50;99.90;;;;;;5037275;28;20392;-56
2022/12/08 05:44:07;;;;;;;4.90;2.03;;;4.60;99.90;;;;;;5038083;28;20236;-56
2022/12/08 05:46:34;;;;;;;3.03;1.83;;;4.70;99.90;;;;;;5037075;28;20289;-56
2022/12/08 05:49:01;;;;;;;3.17;1.30;;;4.70;99.90;;;;;;5037309;28;20215;-56
2022/12/08 05:51:29;;;;;;;3.77;1.40;;;4.60;99.90;;;;;;5035978;28;20593;-56
2022/12/08 05:53:56;;;;;;;2.30;2.00;;;4.70;99.90;;;;;;5039341;28;20230;-56
2022/12/08 05:56:23;;;;;;;2.73;1.73;;;4.70;99.90;;;;;;5038652;28;20297;-56
2022/12/08 05:58:50;;;;;;;2.80;1.90;;;4.80;99.90;;;;;;5039468;28;20208;-56
2022/12/08 06:01:21;;;;;;;1.93;1.73;;;4.90;99.90;;;;;;5039035;28;20221;-56
2022/12/08 06:03:48;;;;;;;2.63;1.80;;;4.70;99.90;;;;;;5038095;28;20287;-57
2022/12/08 06:06:15;;;;;;;2.43;1.77;;;4.50;99.90;;;;;;5039227;28;20291;-57
2022/12/08 06:08:42;;;;;;;3.10;1.90;;;4.60;99.90;;;;;;5038759;28;20286;-61
2022/12/08 06:11:09;;;;;;;2.90;2.13;;;4.50;99.90;;;;;;5039729;28;20235;-55
2022/12/08 06:13:36;;;;;;;2.40;2.00;;;4.50;99.90;;;;;;5022467;28;20200;-56
2022/12/08 06:16:05;;;;;;;2.97;1.87;;;4.50;99.90;;;;;;5040700;28;20212;-56
2022/12/08 06:18:32;;;;;;;3.13;1.80;;;4.50;99.90;;;;;;5038659;28;20198;-56
2022/12/08 06:21:10;;;;;;;2.83;1.83;;;4.40;99.90;;;;;;5038709;28;20230;-56
2022/12/08 06:23:37;;;;;;;1.97;1.57;;;4.50;99.90;;;;;;5039863;28;20205;-56
2022/12/08 06:26:10;;;;;;;3.40;1.70;;;4.40;99.90;;;;;;5039621;28;20203;-56
2022/12/08 06:28:38;;;;;;;3.37;1.50;;;4.40;99.90;;;;;;5036267;28;20555;-56
2022/12/08 06:31:22;;;;;;;2.47;1.47;;;4.60;99.90;;;;;;5036383;28;20206;-55
2022/12/08 06:33:50;;;;;;;3.10;1.50;;;4.50;99.90;;;;;;5037946;28;20232;-55
2022/12/08 06:36:18;;;;;;;2.10;1.40;;;4.50;99.90;;;;;;5039529;28;20208;-56
2022/12/08 06:38:45;;;;;;;3.93;1.60;;;4.50;99.90;;;;;;5020715;28;20222;-56
2022/12/08 06:41:13;;;;;;;2.03;1.33;;;4.40;99.90;;;;;;5039282;28;20220;-55
2022/12/08 06:43:40;;;;;;;2.00;1.50;;;4.50;99.90;;;;;;5039151;28;20246;-56
2022/12/08 06:46:10;;;;;;;2.23;1.30;;;4.50;99.90;;;;;;5035159;28;20231;-56
2022/12/08 06:48:37;;;;;;;2.10;1.30;;;4.50;99.90;;;;;;5032969;28;20206;-56
2022/12/08 06:51:11;;;;;;;1.67;1.33;;;4.40;99.90;;;;;;5031684;28;20850;-57
2022/12/08 06:53:38;;;;;;;1.77;1.23;;;4.50;99.90;;;;;;5029697;28;20722;-55
2022/12/08 06:56:06;;;;;;;3.07;1.43;;;4.40;99.90;;;;;;5035798;28;20197;-56
2022/12/08 06:58:34;;;;;;;1.97;1.43;;;4.50;99.90;;;;;;5037607;28;20206;-60
2022/12/08 07:01:05;;;;;;;1.37;1.27;;;4.50;99.90;;;;;;5030367;28;20238;-56
2022/12/08 07:03:32;;;;;;;5.30;1.40;;;4.40;99.90;;;;;;5038535;28;20208;-56
2022/12/08 07:05:59;;;;;;;2.50;1.20;;;4.50;99.90;;;;;;5037159;28;20715;-56
2022/12/08 07:08:30;;;;;;;3.50;1.37;;;4.50;99.90;;;;;;5018038;28;20297;-56
2022/12/08 07:10:57;;;;;;;4.80;1.30;;;4.60;99.90;;;;;;5034334;28;20310;-56
2022/12/08 07:13:24;;;;;;;2.13;1.30;;;4.70;99.90;;;;;;5033877;28;20286;-56
2022/12/08 07:15:51;;;;;;;2.07;1.63;;;4.70;99.90;;;;;;5016432;28;20245;-57
2022/12/08 07:18:17;;;;;;;3.67;1.60;;;4.60;99.90;;;;;;5027487;28;20588;-55
2022/12/08 07:20:44;;;;;;;2.33;1.60;;;4.80;99.90;;;;;;5030061;28;20213;-56
2022/12/08 07:23:11;;;;;;;1.80;1.30;;;4.90;99.90;;;;;;5033500;28;20620;-56
2022/12/08 07:25:38;;;;;;;4.50;2.03;;;4.80;99.90;;;;;;5031236;28;20209;-55
2022/12/08 07:28:10;;;;;;;2.30;1.80;;;4.90;99.90;;;;;;5029666;28;20210;-56
2022/12/08 07:30:38;;;;;;;4.10;1.90;;;5.00;99.90;;;;;;5029912;28;20205;-57
2022/12/08 07:33:05;;;;;;;2.63;1.40;;;4.80;99.90;;;;;;5031586;28;20350;-56
2022/12/08 07:35:32;;;;;;;3.60;1.80;;;4.90;99.90;;;;;;5028875;28;20698;-55
2022/12/08 07:38:01;;;;;;;5.70;2.10;;;5.00;99.90;;;;;;5025780;28;20212;-56
2022/12/08 07:40:28;;;;;;;3.73;2.00;;;5.00;99.90;;;;;;5028797;28;20243;-56
2022/12/08 07:42:55;;;;;;;2.43;1.37;;;5.10;99.90;;;;;;4668286;28;10000514;-56
2022/12/08 07:45:22;;;;;;;1.23;0.90;;;4.90;99.90;;;;;;5027977;28;20297;-57
2022/12/08 07:47:56;;;;;;;1.50;1.20;;;4.70;99.90;;;;;;5028362;28;20663;-55
2022/12/08 07:50:23;;;;;;;1.27;0.93;;;4.70;99.90;;;;;;5030284;28;20555;-55
2022/12/08 07:52:50;;;;;;;0.70;0.70;;;4.70;99.90;;;;;;5010642;28;20223;-55
2022/12/08 07:55:17;;;;;;;2.93;0.90;;;4.70;99.90;;;;;;5026083;28;20208;-56
2022/12/08 07:57:44;;;;;;;1.20;1.00;;;4.70;99.90;;;;;;5024937;28;20794;-56
2022/12/08 08:00:11;;;;;;;1.97;0.97;;;4.80;99.90;;;;;;5020007;28;20216;-55
2022/12/08 08:02:38;;;;;;;3.83;1.50;;;4.70;99.90;;;;;;5037180;28;20198;-56
2022/12/08 08:05:06;;;;;;;1.80;1.30;;;4.60;99.90;;;;;;5038013;28;20649;-56
2022/12/08 08:07:33;;;;;;;2.63;1.57;;;4.60;99.90;;;;;;5038338;28;20681;-56
2022/12/08 08:09:59;;;;;;;2.07;1.43;;;4.60;99.90;;;;;;5032606;28;20204;-61
2022/12/08 08:12:26;;;;;;;1.90;1.40;;;4.50;99.90;;;;;;5031571;28;20569;-56
2022/12/08 08:15:02;;;;;;;2.57;1.57;;;4.50;99.90;;;;;;5033967;28;20573;-56
2022/12/08 08:17:29;;;;;;;1.87;1.40;;;4.60;99.90;;;;;;5039034;28;20230;-55
2022/12/08 08:19:56;;;;;;;2.50;1.50;;;4.60;99.90;;;;;;5034909;28;20235;-55
2022/12/08 08:22:24;;;;;;;3.30;1.70;;;4.70;99.90;;;;;;5040800;28;20598;-55
2022/12/08 08:24:52;;;;;;;1.97;1.63;;;4.70;99.90;;;;;;5036982;28;20260;-56
2022/12/08 08:27:19;;;;;;;1.63;1.50;;;4.80;99.90;;;;;;5032976;28;20920;-60
2022/12/08 08:29:46;;;;;;;2.27;1.80;;;4.80;99.90;;;;;;5029569;28;20201;-56
2022/12/08 08:32:13;;;;;;;2.00;1.63;;;4.80;99.90;;;;;;5030544;28;20306;-57
2022/12/08 08:34:40;;;;;;;2.10;1.90;;;4.80;99.90;;;;;;5032259;28;20222;-56
2022/12/08 08:37:06;;;;;;;2.53;1.63;;;4.90;99.90;;;;;;5034552;28;20247;-58
2022/12/08 08:39:33;;;;;;;1.97;1.50;;;4.90;99.90;;;;;;5018933;28;20203;-56
2022/12/08 08:42:00;;;;;;;2.80;1.80;;;4.80;99.90;;;;;;5030830;28;20217;-56
2022/12/08 08:44:27;;;;;;;2.13;1.67;;;4.70;99.90;;;;;;5038679;28;20212;-57
2022/12/08 08:46:54;;;;;;;2.40;1.60;;;4.70;99.90;;;;;;5029246;28;20224;-56
2022/12/08 08:49:21;;;;;;;1.40;1.20;;;4.60;99.90;;;;;;5025981;28;20211;-57
2022/12/08 08:51:47;;;;;;;2.47;1.57;;;4.50;99.90;;;;;;5032460;28;20603;-57
2022/12/08 08:54:14;;;;;;;1.27;1.13;;;4.40;99.90;;;;;;5030375;28;20210;-56
2022/12/08 08:56:41;;;;;;;2.10;1.23;;;4.30;99.90;;;;;;5034773;28;20598;-54
2022/12/08 08:59:09;;;;;;;2.43;1.13;;;4.20;99.90;;;;;;5022138;28;20193;-63
2022/12/08 09:01:36;;;;;;;1.50;1.10;;;4.10;99.90;;;;;;5016139;28;20225;-55
2022/12/08 09:04:03;;;;;;;1.90;1.30;;;4.10;99.90;;;;;;5034289;28;20302;-56
2022/12/08 09:06:30;;;;;;;1.30;1.10;;;4.10;99.90;;;;;;5034068;28;20209;-56
2022/12/08 09:08:57;;;;;;;1.47;1.30;;;4.10;99.90;;;;;;5026247;28;20292;-57
2022/12/08 09:11:23;;;;;;;2.57;1.50;;;4.10;99.90;;;;;;5030455;28;20245;-55
2022/12/08 09:13:52;;;;;;;2.03;1.70;;;4.20;99.90;;;;;;5035879;28;20262;-56
2022/12/08 09:16:20;;;;;;;3.47;1.40;;;4.20;99.90;;;;;;5030314;28;20642;-55
2022/12/08 09:18:49;;;;;;;1.60;1.50;;;4.20;99.90;;;;;;5035281;28;20236;-55
2022/12/08 09:21:21;;;;;;;1.70;1.33;;;4.10;99.90;;;;;;5035467;28;20255;-56
2022/12/08 09:23:49;;;;;;;2.70;1.40;;;4.10;99.90;;;;;;5033861;28;20336;-59
2022/12/08 09:26:16;;;;;;;1.20;1.10;;;4.10;99.90;;;;;;5033394;28;20227;-60
2022/12/08 09:28:45;;;;;;;1.90;1.50;;;4.20;99.90;;;;;;5035827;28;20623;-55
2022/12/08 09:31:13;;;;;;;4.40;1.40;;;4.20;99.90;;;;;;5032342;28;20348;-56
2022/12/08 09:33:40;;;;;;;2.87;1.47;;;4.30;99.90;;;;;;5041762;28;20244;-55
2022/12/08 09:36:08;;;;;;;2.90;1.57;;;4.50;99.90;;;;;;5063732;28;20321;-55
2022/12/08 09:38:36;;;;;;;1.47;1.20;;;4.40;99.90;;;;;;5053056;28;21087;-56
2022/12/08 09:41:11;;;;;;;2.47;1.30;;;4.50;99.90;;;;;;5049870;28;20222;-55
2022/12/08 09:43:57;;;;;;;2.90;1.30;;;4.50;99.90;;;;;;5056428;28;20269;-55
2022/12/08 09:46:27;;;;;;;2.10;1.30;;;4.50;99.90;;;;;;5049377;28;20324;-57
2022/12/08 09:48:57;;;;;;;2.77;1.37;;;4.50;99.90;;;;;;5048999;28;20236;-56
2022/12/08 09:51:26;;;;;;;3.70;1.20;;;4.60;99.90;;;;;;5044924;28;20622;-56
2022/12/08 09:54:02;;;;;;;3.87;1.23;;;4.60;99.90;;;;;;5051355;28;20198;-57
2022/12/08 09:56:35;;;;;;;1.80;1.30;;;4.50;99.90;;;;;;5051302;28;20955;-57
2022/12/08 09:59:08;;;;;;;3.87;1.50;;;4.50;99.90;;;;;;5051991;28;20203;-55
2022/12/08 10:01:40;;;;;;;3.50;1.73;;;4.40;99.90;;;;;;5050514;28;20222;-56
2022/12/08 10:04:31;;;;;;;3.70;1.63;;;4.50;99.90;;;;;;5033130;28;21040;-56
2022/12/08 10:07:03;;;;;;;2.20;1.40;;;4.50;99.90;;;;;;5053739;28;20276;-57
2022/12/08 10:09:52;;;;;;;3.47;1.77;;;4.50;99.90;;;;;;5052866;28;20199;-56
2022/12/08 10:12:25;;;;;;;2.27;1.37;;;4.40;99.90;;;;;;5054343;28;20349;-57
2022/12/08 10:15:10;;;;;;;4.87;1.87;;;4.50;99.90;;;;;;5055461;28;20613;-57
2022/12/08 10:17:43;;;;;;;1.83;1.47;;;4.50;99.90;;;;;;5056042;28;20293;-56
2022/12/08 10:20:17;;;;;;;3.03;1.97;;;4.60;99.90;;;;;;5056667;28;20213;-57
2022/12/08 10:22:48;;;;;;;2.00;1.10;;;4.70;99.90;;;;;;5057098;28;20312;-57
2022/12/08 10:25:24;;;;;;;3.47;1.40;;;4.60;99.90;;;;;;5069562;28;20207;-57
2022/12/08 10:27:53;;;;;;;2.47;1.53;;;4.60;99.90;;;;;;5054031;28;20326;-57
2022/12/08 10:30:21;;;;;;;2.07;1.17;;;4.70;99.90;;;;;;5054656;28;20196;-56
2022/12/08 10:32:50;;;;;;;2.17;1.40;;;4.90;99.90;;;;;;5052560;28;20209;-56
2022/12/08 10:35:19;;;;;;;1.77;1.30;;;4.80;99.90;;;;;;5038312;28;21134;-56
2022/12/08 10:38:01;;;;;;;3.80;1.60;;;4.90;99.90;;;;;;5015172;28;20827;-56
2022/12/08 10:40:35;;;;;;;3.03;1.30;;;4.80;99.90;;;;;;5035585;28;20208;-55
2022/12/08 10:43:24;;;;;;;3.17;1.80;;;4.80;99.90;;;;;;5031357;28;20232;-56
2022/12/08 10:45:51;;;;;;;1.47;1.13;;;4.70;99.90;;;;;;5033926;28;20614;-56
2022/12/08 10:48:29;;;;;;;2.80;1.50;;;4.50;99.90;;;;;;5020482;28;20196;-54
2022/12/08 10:50:58;;;;;;;2.67;1.90;;;4.70;99.90;;;;;;5030974;28;20199;-54
2022/12/08 10:53:28;;;;;;;5.93;2.23;;;4.80;99.90;;;;;;5033595;28;20209;-56
2022/12/08 10:56:01;;;;;;;3.70;1.90;;;4.60;99.90;;;;;;5049330;28;20204;-56
2022/12/08 10:58:28;;;;;;;2.20;1.60;;;4.60;99.90;;;;;;5036377;28;20201;-55
2022/12/08 11:01:05;;;;;;;2.47;2.20;;;4.70;99.90;;;;;;5030222;28;20203;-59
2022/12/08 11:03:46;;;;;;;2.70;2.30;;;4.70;99.90;;;;;;5031905;28;20207;-56
2022/12/08 11:06:35;;;;;;;2.87;1.97;;;4.70;99.90;;;;;;5033984;28;20204;-54
2022/12/08 11:09:48;;;;;;;2.10;1.90;;;4.70;99.90;;;;;;5032887;28;20247;-56
2022/12/08 11:12:18;;;;;;;2.10;1.80;;;4.50;99.90;;;;;;5033144;28;20292;-55
2022/12/08 11:15:04;;;;;;;2.77;2.23;;;4.50;99.90;;;;;;5034935;28;20256;-54
2022/12/08 11:17:38;;;;;;;3.60;1.73;;;4.60;99.90;;;;;;5029559;28;20202;-55
2022/12/08 11:20:08;;;;;;;1.17;1.10;;;4.60;99.90;;;;;;5032159;28;20230;-55
2022/12/08 11:22:49;;;;;;;1.60;1.20;;;4.40;99.90;;;;;;5031142;28;20225;-55
2022/12/08 11:25:25;;;;;;;1.90;1.50;;;4.50;99.90;;;;;;5033835;28;20280;-55
2022/12/08 11:27:57;;;;;;;2.00;1.80;;;4.40;99.90;;;;;;5030137;28;20203;-56
2022/12/08 11:30:29;;;;;;;1.87;1.77;;;4.70;99.90;;;;;;5033194;28;20246;-59
2022/12/08 11:33:18;;;;;;;1.30;1.20;;;4.70;99.90;;;;;;5033461;28;20285;-62
2022/12/08 11:35:50;;;;;;;1.00;0.90;;;4.90;99.90;;;;;;5030536;28;20236;-58
2022/12/08 11:38:20;;;;;;;0.90;0.83;;;5.00;99.90;;;;;;5029339;28;20264;-56
2022/12/08 11:40:55;;;;;;;1.33;1.03;;;5.10;99.90;;;;;;5028900;28;20203;-56
2022/12/08 11:43:34;;;;;;;1.27;1.07;;;5.10;99.90;;;;;;5031056;28;20209;-55
2022/12/08 11:46:07;;;;;;;3.93;1.13;;;5.00;99.90;;;;;;5027901;28;20203;-57
2022/12/08 11:48:54;;;;;;;1.20;1.10;;;5.10;99.90;;;;;;5030733;28;20639;-55
2022/12/08 11:51:46;;;;;;;1.40;1.30;;;5.20;99.90;;;;;;5034737;28;20281;-56
2022/12/08 11:54:38;;;;;;;2.47;1.30;;;5.10;99.90;;;;;;5035876;28;20216;-55
2022/12/08 11:57:12;;;;;;;1.80;1.17;;;5.10;99.90;;;;;;5033678;28;20241;-55
2022/12/08 11:59:50;;;;;;;1.17;1.07;;;5.00;99.90;;;;;;5032270;28;20543;-55
2022/12/08 12:02:20;;;;;;;2.00;1.60;;;4.90;99.90;;;;;;5019937;28;20635;-55
2022/12/08 12:05:01;;;;;;;1.90;1.70;;;5.00;99.90;;;;;;5033480;28;20207;-55
2022/12/08 12:07:52;;;;;;;1.40;1.30;;;4.90;99.90;;;;;;5036470;28;20342;-55
2022/12/08 12:10:50;;;;;;;2.43;1.50;;;5.10;99.90;;;;;;5031696;28;20321;-56
2022/12/08 12:14:01;;;;;;;1.13;1.03;;;5.00;99.90;;;;;;5037462;28;20572;-55
2022/12/08 12:16:56;;;;;;;2.37;1.70;;;5.00;99.90;;;;;;5029307;28;20216;-55
2022/12/08 12:19:24;;;;;;;2.33;1.53;;;5.00;99.90;;;;;;5035817;28;20687;-55
2022/12/08 12:21:54;;;;;;;2.43;1.83;;;5.20;99.90;;;;;;5034853;28;20235;-56
2022/12/08 12:24:25;;;;;;;2.20;1.77;;;5.30;99.90;;;;;;5034916;28;20212;-56
2022/12/08 12:27:14;;;;;;;1.60;1.30;;;5.30;99.90;;;;;;5031476;28;20544;-56
2022/12/08 12:29:48;;;;;;;0.80;0.80;;;5.30;99.90;;;;;;5030808;28;20231;-56
2022/12/08 12:32:51;;;;;;;1.13;0.90;;;5.30;99.90;;;;;;5033596;28;20310;-56
2022/12/08 12:35:24;;;;;;;2.20;0.80;;;5.20;99.90;;;;;;5030965;28;20329;-57
2022/12/08 12:37:59;;;;;;;0.70;0.70;;;5.10;99.90;;;;;;5031629;28;20799;-57
2022/12/08 12:40:32;;;;;;;2.03;1.30;;;5.20;99.90;;;;;;5032279;28;20298;-57
2022/12/08 12:42:59;;;;;;;1.60;1.20;;;5.20;99.90;;;;;;5028827;28;20222;-57
2022/12/08 12:45:31;;;;;;;1.20;1.10;;;5.00;99.90;;;;;;5031856;28;20226;-57
2022/12/08 12:47:58;;;;;;;1.10;1.00;;;4.90;99.90;;;;;;5033131;28;20309;-56
2022/12/08 12:50:31;;;;;;;1.37;1.20;;;5.10;99.90;;;;;;5039751;28;20217;-57
2022/12/08 12:53:02;;;;;;;0.90;0.90;;;5.00;99.90;;;;;;5048754;28;20215;-60
2022/12/08 12:56:01;;;;;;;1.37;1.00;;;5.10;99.90;;;;;;5032357;28;20228;-56
2022/12/08 12:58:30;;;;;;;0.87;0.80;;;5.00;99.90;;;;;;5017145;28;20560;-55
2022/12/08 13:01:12;;;;;;;2.03;1.13;;;4.80;99.90;;;;;;5034410;28;20582;-54
2022/12/08 13:04:09;;;;;;;0.97;0.93;;;4.90;99.90;;;;;;5034667;28;20299;-55
2022/12/08 13:06:43;;;;;;;1.37;1.20;;;4.70;99.90;;;;;;5037883;28;20239;-60
2022/12/08 13:09:30;;;;;;;1.60;1.27;;;4.50;99.90;;;;;;5032504;28;20583;-57
2022/12/08 13:12:00;;;;;;;1.23;1.13;;;4.50;99.90;;;;;;5026933;28;20507;-55
2022/12/08 13:14:29;;;;;;;1.70;1.30;;;4.50;99.90;;;;;;5029203;28;20206;-55
2022/12/08 13:16:58;;;;;;;2.20;1.23;;;4.70;99.90;;;;;;5027892;28;20210;-57
2022/12/08 13:19:29;;;;;;;1.83;1.30;;;4.70;99.90;;;;;;5025552;28;20201;-57
2022/12/08 13:21:57;;;;;;;1.50;1.27;;;4.70;99.90;;;;;;5027180;28;20240;-56
2022/12/08 13:24:24;;;;;;;2.53;0.90;;;4.70;99.90;;;;;;5034118;28;20246;-55
2022/12/08 13:27:03;;;;;;;1.53;0.97;;;4.60;99.90;;;;;;5036798;28;20728;-56